createdAt,value
2022-12-08T00:01:50.168Z,-0.70
2022-12-08T00:04:17.208Z,-0.80
2022-12-08T00:07:03.163Z,-0.80
2022-12-08T00:09:39.057Z,-0.80
2022-12-08T00:12:17.627Z,-0.90
2022-12-08T00:14:46.293Z,-0.90
2022-12-08T00:17:15.397Z,-0.90
2022-12-08T00:19:43.804Z,-1.00
2022-12-08T00:22:12.254Z,-1.00
2022-12-08T00:24:40.591Z,-1.00
2022-12-08T00:27:09.381Z,-0.90
2022-12-08T00:29:39.261Z,-0.90
2022-12-08T00:32:06.703Z,-0.90
2022-12-08T00:34:33.996Z,-0.90
2022-12-08T00:37:01.282Z,-0.90
2022-12-08T00:39:28.089Z,-0.90
2022-12-08T00:42:13.173Z,-0.90
2022-12-08T00:44:44.441Z,-0.90
2022-12-08T00:47:12.606Z,-0.80
2022-12-08T00:49:41.768Z,-1.00
2022-12-08T00:52:12.651Z,-0.90
2022-12-08T00:54:42.001Z,-0.90
2022-12-08T00:57:11.501Z,-0.90
2022-12-08T00:59:40.519Z,-1.00
2022-12-08T01:02:07.579Z,-1.00
2022-12-08T01:04:34.418Z,-1.00
2022-12-08T01:07:03.499Z,-1.00
2022-12-08T01:09:30.724Z,-1.10
2022-12-08T01:12:00.737Z,-1.10
2022-12-08T01:14:28.731Z,-1.10
2022-12-08T01:16:55.498Z,-1.10
2022-12-08T01:19:24.674Z,-1.10
2022-12-08T01:21:51.538Z,-1.20
2022-12-08T01:24:20.638Z,-1.10
2022-12-08T01:26:48.943Z,-1.20
2022-12-08T01:29:16.266Z,-1.20
2022-12-08T01:31:43.327Z,-1.10
2022-12-08T01:34:11.513Z,-1.10
2022-12-08T01:36:39.063Z,-1.20
2022-12-08T01:39:08.716Z,-1.20
2022-12-08T01:41:39.312Z,-1.30
2022-12-08T01:44:10.681Z,-1.30
2022-12-08T01:46:42.925Z,-1.30
2022-12-08T01:49:16.214Z,-1.30
2022-12-08T01:52:03.129Z,-1.40
2022-12-08T01:54:38.681Z,-1.40
2022-12-08T01:57:21.005Z,-1.40
2022-12-08T02:00:01.083Z,-1.30
2022-12-08T02:02:36.977Z,-1.40
2022-12-08T02:05:05.585Z,-1.30
2022-12-08T02:07:33.478Z,-1.40
2022-12-08T02:10:04.312Z,-1.30
2022-12-08T02:12:31.695Z,-1.40
2022-12-08T02:15:04.861Z,-1.40
2022-12-08T02:17:32.480Z,-1.30
2022-12-08T02:20:21.031Z,-1.40
2022-12-08T02:22:50.588Z,-1.30
2022-12-08T02:26:05.437Z,-1.30
2022-12-08T02:29:09.232Z,-1.30
2022-12-08T02:31:53.761Z,-1.20
2022-12-08T02:34:44.081Z,-1.30
2022-12-08T02:37:26.095Z,-1.30
2022-12-08T02:40:26.969Z,-1.20
2022-12-08T02:43:13.130Z,-1.20
2022-12-08T02:46:01.094Z,-1.10
2022-12-08T02:48:29.542Z,-1.20
2022-12-08T02:50:56.653Z,-1.10
2022-12-08T02:53:23.447Z,-1.20
2022-12-08T02:56:17.811Z,-1.10
2022-12-08T02:59:11.995Z,-1.10
2022-12-08T03:01:51.360Z,-1.20
2022-12-08T03:04:39.703Z,-1.10
2022-12-08T03:07:20.280Z,-1.10
2022-12-08T03:10:07.573Z,-1.10
2022-12-08T03:12:42.712Z,-1.00
2022-12-08T03:15:15.638Z,-1.10
2022-12-08T03:17:47.295Z,-1.10
2022-12-08T03:20:19.653Z,-1.10
2022-12-08T03:22:53.962Z,-1.10
2022-12-08T03:25:26.556Z,-1.10
2022-12-08T03:27:53.980Z,-1.20
2022-12-08T03:30:20.713Z,-1.20
2022-12-08T03:32:58.765Z,-1.20
2022-12-08T03:35:29.469Z,-1.20
2022-12-08T03:38:08.191Z,-1.20
2022-12-08T03:40:37.805Z,-1.20
2022-12-08T03:43:04.616Z,-1.20
2022-12-08T03:45:32.697Z,-1.20
2022-12-08T03:47:59.849Z,-1.20
2022-12-08T03:50:29.241Z,-1.30
2022-12-08T03:52:58.170Z,-1.20
2022-12-08T03:55:27.958Z,-1.20
2022-12-08T03:57:54.962Z,-1.20
2022-12-08T04:00:22.135Z,-1.20
2022-12-08T04:02:51.633Z,-1.20
2022-12-08T04:05:20.621Z,-1.20
2022-12-08T04:07:47.393Z,-1.20
2022-12-08T04:10:14.551Z,-1.30
2022-12-08T04:12:41.296Z,-1.20
2022-12-08T04:15:11.134Z,-1.20
2022-12-08T04:17:37.849Z,-1.30
2022-12-08T04:20:07.978Z,-1.20
2022-12-08T04:22:44.661Z,-1.10
2022-12-08T04:25:11.808Z,-1.00
2022-12-08T04:27:38.486Z,-1.00
2022-12-08T04:30:12.472Z,-1.00
2022-12-08T04:32:42.939Z,-0.90
2022-12-08T04:35:13.952Z,-0.90
2022-12-08T04:37:44.182Z,-0.80
2022-12-08T04:40:12.200Z,-0.80
2022-12-08T04:42:41.577Z,-0.80
2022-12-08T04:45:09.405Z,-0.80
2022-12-08T04:47:36.103Z,-0.80
2022-12-08T04:50:06.572Z,-0.70
2022-12-08T04:52:33.401Z,-0.80
2022-12-08T04:55:00.704Z,-0.80
2022-12-08T04:57:29.650Z,-0.70
2022-12-08T04:59:56.458Z,-0.70
2022-12-08T05:02:23.191Z,-0.70
2022-12-08T05:04:50.062Z,-0.60
2022-12-08T05:07:16.780Z,-0.70
2022-12-08T05:09:43.906Z,-0.70
2022-12-08T05:12:13.133Z,-0.70
2022-12-08T05:14:39.844Z,-0.90
2022-12-08T05:17:09.722Z,-0.80
2022-12-08T05:19:39.054Z,-0.80
2022-12-08T05:22:06.092Z,-0.90
2022-12-08T05:24:33.411Z,-0.80
2022-12-08T05:27:00.494Z,-0.80
2022-12-08T05:29:30.818Z,-0.80
2022-12-08T05:31:57.611Z,-0.70
2022-12-08T05:34:24.798Z,-0.70
2022-12-08T05:36:51.532Z,-0.60
2022-12-08T05:39:18.599Z,-0.70
2022-12-08T05:41:45.486Z,-0.70
2022-12-08T05:44:12.806Z,-0.70
2022-12-08T05:46:39.614Z,-0.70
2022-12-08T05:49:06.384Z,-0.60
2022-12-08T05:51:33.382Z,-0.60
2022-12-08T05:54:00.904Z,-0.50
2022-12-08T05:56:27.996Z,-0.60
2022-12-08T05:58:54.856Z,-0.50
2022-12-08T06:01:24.003Z,-0.50
2022-12-08T06:03:52.608Z,-0.50
2022-12-08T06:06:22.209Z,-0.50
2022-12-08T06:08:49.638Z,-0.50
2022-12-08T06:11:25.664Z,-0.50
2022-12-08T06:13:53.165Z,-0.40
2022-12-08T06:16:23.281Z,-0.40
2022-12-08T06:18:55.938Z,-0.50
2022-12-08T06:21:23.093Z,-0.50
2022-12-08T06:23:51.813Z,-0.40
2022-12-08T06:26:21.480Z,-0.40
2022-12-08T06:28:50.871Z,-0.50
2022-12-08T06:31:36.777Z,-0.40
2022-12-08T06:34:03.847Z,-0.40
2022-12-08T06:36:30.972Z,-0.40
2022-12-08T06:39:00.695Z,-0.40
2022-12-08T06:41:30.840Z,-0.40
2022-12-08T06:43:58.098Z,-0.50
2022-12-08T06:46:29.877Z,-0.40
2022-12-08T06:48:56.730Z,-0.50
2022-12-08T06:51:23.554Z,-0.30
2022-12-08T06:53:50.547Z,-0.30
2022-12-08T06:56:19.990Z,-0.30
2022-12-08T06:58:52.117Z,-0.10
2022-12-08T07:01:19.936Z,-0.20
2022-12-08T07:03:47.833Z,-0.30
2022-12-08T07:06:21.683Z,-0.20
2022-12-08T07:08:48.906Z,-0.20
2022-12-08T07:11:21.187Z,-0.10
2022-12-08T07:13:49.015Z,-0.20
2022-12-08T07:16:15.909Z,-0.20
2022-12-08T07:18:43.915Z,-0.30
2022-12-08T07:21:13.689Z,-0.30
2022-12-08T07:23:40.988Z,-0.20
2022-12-08T07:26:11.739Z,-0.30
2022-12-08T07:28:40.827Z,-0.20
2022-12-08T07:31:09.030Z,-0.30
2022-12-08T07:33:38.885Z,-0.20
2022-12-08T07:36:06.579Z,-0.20
2022-12-08T07:38:33.781Z,-0.10
2022-12-08T07:41:02.369Z,-0.10
2022-12-08T07:43:29.356Z,-0.20
2022-12-08T07:45:56.162Z,-0.10
2022-12-08T07:48:22.977Z,-0.10
2022-12-08T07:50:49.780Z,-0.10
2022-12-08T07:53:16.626Z,0.00
2022-12-08T07:55:44.684Z,0.00
2022-12-08T07:58:13.827Z,0.00
2022-12-08T08:00:40.588Z,0.00
2022-12-08T08:03:09.053Z,-0.10
2022-12-08T08:05:35.888Z,0.00
2022-12-08T08:08:02.963Z,0.00
2022-12-08T08:10:30.162Z,0.00
2022-12-08T08:13:00.841Z,0.10
2022-12-08T08:15:28.206Z,0.10
2022-12-08T08:17:55.140Z,0.20
2022-12-08T08:20:22.335Z,0.10
2022-12-08T08:22:51.057Z,0.10
2022-12-08T08:25:19.514Z,0.10
2022-12-08T08:27:46.998Z,0.30
2022-12-08T08:30:19.922Z,0.30
2022-12-08T08:32:50.243Z,0.20
2022-12-08T08:35:17.231Z,0.20
2022-12-08T08:37:48.589Z,0.30
2022-12-08T08:40:18.421Z,0.30
2022-12-08T08:42:45.242Z,0.30
2022-12-08T08:45:12.323Z,0.40
2022-12-08T08:47:40.441Z,0.40
2022-12-08T08:50:08.077Z,0.50
2022-12-08T08:52:37.352Z,0.40
2022-12-08T08:55:06.693Z,0.60
2022-12-08T08:57:33.625Z,0.50
2022-12-08T09:00:01.354Z,0.60
2022-12-08T09:02:28.317Z,0.60
2022-12-08T09:05:03.137Z,0.60
2022-12-08T09:07:30.665Z,0.70
2022-12-08T09:10:01.586Z,0.60
2022-12-08T09:12:29.232Z,0.60
2022-12-08T09:14:56.281Z,0.70
2022-12-08T09:17:23.701Z,0.60
2022-12-08T09:19:50.616Z,0.70
2022-12-08T09:22:17.436Z,0.70
2022-12-08T09:24:44.316Z,0.80
2022-12-08T09:27:13.379Z,0.90
2022-12-08T09:29:40.268Z,0.90
2022-12-08T09:32:07.181Z,0.80
2022-12-08T09:34:35.975Z,0.90
2022-12-08T09:37:03.305Z,1.00
2022-12-08T09:39:30.072Z,0.90
2022-12-08T09:42:04.132Z,0.90
2022-12-08T09:44:41.959Z,1.00
2022-12-08T09:47:35.584Z,0.90
2022-12-08T09:50:24.117Z,0.90
2022-12-08T09:53:12.207Z,0.90
2022-12-08T09:55:55.674Z,1.00
2022-12-08T09:58:25.458Z,1.00
2022-12-08T10:00:52.383Z,0.90
2022-12-08T10:03:23.163Z,1.00
2022-12-08T10:06:05.919Z,1.00
2022-12-08T10:08:39.536Z,1.00
2022-12-08T10:11:18.130Z,1.00
2022-12-08T10:13:58.777Z,0.90
2022-12-08T10:16:35.814Z,1.10
2022-12-08T10:19:14.141Z,1.10
2022-12-08T10:21:41.486Z,1.10
2022-12-08T10:24:22.516Z,1.10
2022-12-08T10:26:49.722Z,1.20
2022-12-08T10:29:19.008Z,1.30
2022-12-08T10:31:45.985Z,1.30
2022-12-08T10:34:24.138Z,1.30
2022-12-08T10:36:59.027Z,1.40
2022-12-08T10:39:43.703Z,1.40
2022-12-08T10:42:22.232Z,1.50
2022-12-08T10:44:58.028Z,1.60
2022-12-08T10:47:29.512Z,1.70
2022-12-08T10:50:24.023Z,1.70
2022-12-08T10:52:56.981Z,1.70
2022-12-08T10:55:24.337Z,1.80
2022-12-08T10:57:51.148Z,1.80
2022-12-08T11:00:24.770Z,1.80
2022-12-08T11:02:57.782Z,1.80
2022-12-08T11:05:29.536Z,1.70
2022-12-08T11:07:56.766Z,1.70
2022-12-08T11:10:46.902Z,1.70
2022-12-08T11:13:27.623Z,1.70
2022-12-08T11:15:55.782Z,1.70
2022-12-08T11:18:39.757Z,1.70
2022-12-08T11:21:18.701Z,1.60
2022-12-08T11:23:50.491Z,1.60
2022-12-08T11:26:35.547Z,1.60
2022-12-08T11:29:05.470Z,1.70
2022-12-08T11:31:38.419Z,1.80
2022-12-08T11:34:06.816Z,1.80
2022-12-08T11:36:35.514Z,1.70
2022-12-08T11:39:05.601Z,1.80
2022-12-08T11:41:39.489Z,1.60
2022-12-08T11:44:28.572Z,1.50
2022-12-08T11:47:04.512Z,1.50
2022-12-08T11:49:41.009Z,1.50
2022-12-08T11:52:37.846Z,1.60
2022-12-08T11:55:16.632Z,1.50
2022-12-08T11:57:44.958Z,1.50
2022-12-08T12:00:16.394Z,1.60
2022-12-08T12:02:50.761Z,1.60
2022-12-08T12:05:46.824Z,1.50
2022-12-08T12:08:56.936Z,1.50
2022-12-08T12:12:07.553Z,1.50
2022-12-08T12:14:53.096Z,1.50
2022-12-08T12:17:57.269Z,1.60
2022-12-08T12:20:32.834Z,1.70
2022-12-08T12:23:23.186Z,1.70
2022-12-08T12:26:02.206Z,1.60
2022-12-08T12:28:44.613Z,1.60
2022-12-08T12:31:21.989Z,1.60
2022-12-08T12:33:50.063Z,1.70
2022-12-08T12:36:17.927Z,1.70
2022-12-08T12:39:04.059Z,1.70
2022-12-08T12:41:37.042Z,1.80
2022-12-08T12:44:11.820Z,1.70
2022-12-08T12:46:42.339Z,1.70
2022-12-08T12:49:40.370Z,1.70
2022-12-08T12:52:10.253Z,1.70
2022-12-08T12:54:42.181Z,1.80
2022-12-08T12:57:09.126Z,1.70
2022-12-08T12:59:46.170Z,1.80
2022-12-08T13:02:36.549Z,1.80
2022-12-08T13:05:18.202Z,1.80
2022-12-08T13:08:02.361Z,1.90
2022-12-08T13:10:48.822Z,1.90
2022-12-08T13:13:17.511Z,1.90
2022-12-08T13:15:49.656Z,1.90
2022-12-08T13:18:25.443Z,2.00
2022-12-08T13:20:59.202Z,2.00
2022-12-08T13:23:29.978Z,2.00
2022-12-08T13:26:18.578Z,2.10
2022-12-08T13:29:11.331Z,2.00
2022-12-08T13:31:38.064Z,2.00
2022-12-08T13:34:15.339Z,2.00
2022-12-08T13:37:12.121Z,2.00
2022-12-08T13:39:55.591Z,1.90
2022-12-08T13:42:42.249Z,1.90
2022-12-08T13:45:33.486Z,1.70
2022-12-08T13:48:30.111Z,1.70
2022-12-08T13:53:15.849Z,1.60
2022-12-08T13:57:16.567Z,1.30
2022-12-08T13:59:45.691Z,1.30
2022-12-08T14:02:30.914Z,1.20
2022-12-08T14:07:49.447Z,1.00
2022-12-08T14:10:21.434Z,0.90
2022-12-08T14:12:55.031Z,0.90
2022-12-08T14:15:25.999Z,0.80
2022-12-08T14:17:57.091Z,0.90
2022-12-08T14:20:51.726Z,0.80
2022-12-08T14:23:19.116Z,0.80
2022-12-08T14:25:48.294Z,0.80
2022-12-08T14:28:15.123Z,0.90
2022-12-08T14:30:42.272Z,0.70
2022-12-08T14:33:16.940Z,0.80
2022-12-08T14:35:50.646Z,0.70
2022-12-08T14:38:19.614Z,0.80
2022-12-08T14:40:49.305Z,0.70
2022-12-08T14:43:20.804Z,0.70
2022-12-08T14:45:50.663Z,0.80
2022-12-08T14:48:26.043Z,0.70
2022-12-08T14:51:07.865Z,0.60
2022-12-08T14:53:42.362Z,0.50
2022-12-08T14:56:27.792Z,0.50
2022-12-08T14:59:06.305Z,0.50
2022-12-08T15:01:34.649Z,0.50
2022-12-08T15:04:08.216Z,0.50
2022-12-08T15:06:35.805Z,0.40
2022-12-08T15:09:17.379Z,0.40
2022-12-08T15:11:44.863Z,0.40
2022-12-08T15:14:31.828Z,0.40
2022-12-08T15:16:58.779Z,0.30
2022-12-08T15:19:32.390Z,0.30
2022-12-08T15:22:14.467Z,0.20
2022-12-08T15:24:41.496Z,0.20
2022-12-08T15:27:16.011Z,0.20
2022-12-08T15:29:42.987Z,0.20
2022-12-08T15:32:11.005Z,0.20
2022-12-08T15:34:38.174Z,0.20
2022-12-08T15:37:15.825Z,0.20
2022-12-08T15:39:42.834Z,0.10
2022-12-08T15:42:13.099Z,0.10
2022-12-08T15:44:43.614Z,0.10
2022-12-08T15:47:19.775Z,0.20
2022-12-08T15:49:48.228Z,0.10
2022-12-08T15:52:22.877Z,0.10
2022-12-08T15:54:54.848Z,0.00
2022-12-08T15:57:43.775Z,0.00
2022-12-08T16:09:13.109Z,0.00
2022-12-08T16:12:09.099Z,0.10
2022-12-08T16:17:24.581Z,0.00
2022-12-08T16:19:54.053Z,0.10
2022-12-08T16:25:19.240Z,0.00
2022-12-08T16:30:37.061Z,-0.20
2022-12-08T16:33:04.083Z,-0.20
2022-12-08T16:35:31.232Z,-0.20
2022-12-08T16:38:04.366Z,-0.30
2022-12-08T16:40:31.232Z,-0.30
2022-12-08T16:42:58.232Z,-0.30
2022-12-08T16:45:30.569Z,-0.30
2022-12-08T16:48:01.046Z,-0.40
2022-12-08T16:50:30.302Z,-0.30
2022-12-08T16:53:04.531Z,-0.30
2022-12-08T16:55:34.313Z,-0.40
2022-12-08T16:58:02.809Z,-0.30
2022-12-08T17:00:36.795Z,-0.40
2022-12-08T17:03:05.430Z,-0.40
2022-12-08T17:05:32.518Z,-0.50
2022-12-08T17:08:00.234Z,-0.40
2022-12-08T17:10:34.467Z,-0.50
2022-12-08T17:13:02.678Z,-0.50
2022-12-08T17:15:32.499Z,-0.50
2022-12-08T17:17:59.723Z,-0.70
2022-12-08T17:20:28.067Z,-0.50
2022-12-08T17:22:56.437Z,-0.50
2022-12-08T17:25:24.851Z,-0.60
2022-12-08T17:27:53.916Z,-0.40
2022-12-08T17:30:20.855Z,-0.50
2022-12-08T17:33:01.369Z,-0.50
2022-12-08T17:35:35.113Z,-0.40
2022-12-08T17:38:02.732Z,-0.30
2022-12-08T17:40:30.392Z,-0.50
2022-12-08T17:43:06.975Z,-0.40
2022-12-08T17:45:33.684Z,-0.40
2022-12-08T17:48:01.896Z,-0.40
2022-12-08T17:50:28.596Z,-0.50
2022-12-08T17:52:57.072Z,-0.40
2022-12-08T17:55:25.902Z,-0.50
2022-12-08T17:57:53.142Z,-0.50
2022-12-08T18:00:20.107Z,-0.60
2022-12-08T18:02:48.335Z,-0.50
2022-12-08T18:05:19.128Z,-0.60
2022-12-08T18:07:47.111Z,-0.60
2022-12-08T18:10:13.984Z,-0.70
2022-12-08T18:12:41.543Z,-0.70
2022-12-08T18:15:17.297Z,-0.90
2022-12-08T18:17:46.979Z,-0.90
2022-12-08T18:20:14.892Z,-0.80
2022-12-08T18:22:43.006Z,-0.90
2022-12-08T18:25:13.285Z,-0.90
2022-12-08T18:27:47.971Z,-0.80
2022-12-08T18:30:18.322Z,-0.90
2022-12-08T18:32:46.611Z,-0.90
2022-12-08T18:35:13.940Z,-0.90
2022-12-08T18:37:41.053Z,-0.80
2022-12-08T18:40:11.436Z,-0.80
2022-12-08T18:42:41.141Z,-0.70
2022-12-08T18:45:10.794Z,-0.70
2022-12-08T18:47:43.403Z,-0.70
2022-12-08T18:50:12.086Z,-0.60
2022-12-08T18:52:40.370Z,-0.70
2022-12-08T18:55:10.278Z,-0.60
2022-12-08T18:57:41.280Z,-0.60
2022-12-08T19:00:10.467Z,-0.40
2022-12-08T19:02:40.103Z,-0.30
2022-12-08T19:05:13.204Z,-0.20
2022-12-08T19:07:42.936Z,-0.20
2022-12-08T19:10:12.872Z,-0.40
2022-12-08T19:12:42.138Z,-0.30
2022-12-08T19:15:09.547Z,-0.30
2022-12-08T19:17:36.508Z,-0.40
2022-12-08T19:20:06.771Z,-0.30
2022-12-08T19:22:33.914Z,-0.40
2022-12-08T19:25:01.272Z,-0.40
2022-12-08T19:27:29.205Z,-0.40
2022-12-08T19:29:56.419Z,-0.50
2022-12-08T19:32:25.799Z,-0.60
2022-12-08T19:34:55.207Z,-0.50
2022-12-08T19:37:21.945Z,-0.60
2022-12-08T19:40:07.504Z,-0.50
2022-12-08T19:42:55.402Z,-0.60
2022-12-08T19:45:22.753Z,-0.60
2022-12-08T19:47:49.631Z,-0.60
2022-12-08T19:50:35.383Z,-0.50
2022-12-08T19:53:16.823Z,-0.50
2022-12-08T19:55:44.158Z,-0.50
2022-12-08T19:58:13.592Z,-0.50
2022-12-08T20:00:41.204Z,-0.50
2022-12-08T20:03:08.924Z,-0.60
2022-12-08T20:05:36.944Z,-0.70
2022-12-08T20:08:04.226Z,-0.70
2022-12-08T20:10:34.458Z,-0.80
2022-12-08T20:13:29.672Z,-0.90
2022-12-08T20:15:57.175Z,-0.80
2022-12-08T20:18:24.372Z,-1.00
2022-12-08T20:20:51.855Z,-1.10
2022-12-08T20:23:18.697Z,-1.10
2022-12-08T20:25:47.607Z,-1.20
2022-12-08T20:28:14.937Z,-1.30
2022-12-08T20:30:47.076Z,-1.20
2022-12-08T20:33:15.239Z,-1.20
2022-12-08T20:35:43.873Z,-1.20
2022-12-08T20:38:11.295Z,-1.20
2022-12-08T20:40:47.100Z,-1.30
2022-12-08T20:43:15.726Z,-1.30
2022-12-08T20:45:42.499Z,-1.30
2022-12-08T20:48:15.937Z,-1.30
2022-12-08T20:50:42.868Z,-1.30
2022-12-08T20:53:09.857Z,-1.40
2022-12-08T20:55:39.857Z,-1.40
2022-12-08T20:58:06.756Z,-1.50
2022-12-08T21:00:33.562Z,-1.50
2022-12-08T21:03:01.403Z,-1.40
2022-12-08T21:05:31.018Z,-1.40
2022-12-08T21:08:01.011Z,-1.40
2022-12-08T21:10:27.990Z,-1.50
2022-12-08T21:12:55.082Z,-1.40
2022-12-08T21:15:22.165Z,-1.50
2022-12-08T21:17:48.940Z,-1.50
2022-12-08T21:20:16.338Z,-1.50
2022-12-08T21:22:43.298Z,-1.50
2022-12-08T21:25:10.524Z,-1.50
2022-12-08T21:27:40.627Z,-1.50
2022-12-08T21:30:09.051Z,-1.60
2022-12-08T21:32:39.090Z,-1.50
2022-12-08T21:35:07.082Z,-1.60
2022-12-08T21:37:35.473Z,-1.60
2022-12-08T21:40:03.626Z,-1.60
2022-12-08T21:42:45.787Z,-1.60
2022-12-08T21:45:16.224Z,-1.60
2022-12-08T21:47:44.273Z,-1.70
2022-12-08T21:50:12.740Z,-1.60
2022-12-08T21:52:41.235Z,-1.70
2022-12-08T21:55:13.140Z,-1.60
2022-12-08T21:57:40.634Z,-1.70
2022-12-08T22:00:13.352Z,-1.70
2022-12-08T22:02:40.269Z,-1.60
2022-12-08T22:05:07.829Z,-1.70
2022-12-08T22:07:40.810Z,-1.70
2022-12-08T22:10:10.403Z,-1.70
2022-12-08T22:12:41.091Z,-1.70
2022-12-08T22:15:10.144Z,-1.60
2022-12-08T22:17:42.466Z,-1.60
2022-12-08T22:20:14.274Z,-1.70
2022-12-08T22:22:41.923Z,-1.70
2022-12-08T22:25:11.904Z,-1.80
2022-12-08T22:27:41.815Z,-1.70
2022-12-08T22:30:12.206Z,-1.60
2022-12-08T22:32:39.601Z,-1.60
2022-12-08T22:35:06.871Z,-1.70
2022-12-08T22:37:36.299Z,-1.70
2022-12-08T22:40:06.266Z,-1.70
2022-12-08T22:42:35.819Z,-1.70
2022-12-08T22:45:02.555Z,-1.60
2022-12-08T22:47:30.084Z,-1.60
2022-12-08T22:49:57.281Z,-1.70
2022-12-08T22:52:24.207Z,-1.60
2022-12-08T22:54:50.883Z,-1.70
2022-12-08T22:57:18.436Z,-1.60
2022-12-08T22:59:45.620Z,-1.60
2022-12-08T23:02:14.769Z,-1.70
2022-12-08T23:04:41.849Z,-1.70
2022-12-08T23:07:08.886Z,-1.60
2022-12-08T23:09:35.918Z,-1.70
2022-12-08T23:12:02.881Z,-1.70
2022-12-08T23:14:29.625Z,-1.70
2022-12-08T23:16:56.744Z,-1.80
2022-12-08T23:19:26.323Z,-1.80
2022-12-08T23:21:55.422Z,-1.80
2022-12-08T23:24:22.412Z,-1.80
2022-12-08T23:26:51.486Z,-1.80
2022-12-08T23:29:18.710Z,-1.90
2022-12-08T23:31:45.555Z,-1.90
2022-12-08T23:34:12.575Z,-1.90
2022-12-08T23:36:39.475Z,-1.90
2022-12-08T23:39:06.963Z,-1.90
2022-12-08T23:41:33.775Z,-1.80
2022-12-08T23:44:01.436Z,-1.90
2022-12-08T23:46:28.299Z,-1.90
2022-12-08T23:48:55.337Z,-1.80
2022-12-08T23:51:22.128Z,-1.90
2022-12-08T23:53:48.937Z,-1.80
2022-12-08T23:56:17.519Z,-1.90
2022-12-08T23:58:45.172Z,-1.90
